Time;durP1;ratioP1;P1;durP2;ratioP2;P2;SDS_P1;SDS_P2;PMS_P1;PMS_P2;Temp;Humidity;BMP_temperature;BMP_pressure;BME280_temperature;BME280_humidity;BME280_pressure;Samples;Min_cycle;Max_cycle;Signal;HPM_P1;HPM_P2
2022/05/15 00:00:44;;;;;;;11.02;6.30;;;;;;;12.96;100.00;95160.59;5070552;28;20048;-68
2022/05/15 00:03:21;;;;;;;7.70;6.10;;;;;;;12.95;100.00;95157.19;5071308;28;20108;-67
2022/05/15 00:05:58;;;;;;;10.43;6.38;;;;;;;12.76;100.00;95135.69;5070112;28;20055;-67
2022/05/15 00:08:27;;;;;;;9.55;6.65;;;;;;;12.87;100.00;95154.97;5073088;28;20102;-68
2022/05/15 00:10:54;;;;;;;7.20;5.32;;;;;;;12.82;100.00;95158.28;5071196;28;20044;-67
2022/05/15 00:13:22;;;;;;;10.90;6.70;;;;;;;12.78;100.00;95151.16;5076940;28;20056;-68
2022/05/15 00:15:49;;;;;;;9.13;6.25;;;;;;;12.77;100.00;95154.81;5071574;28;20048;-68
2022/05/15 00:18:18;;;;;;;8.27;5.60;;;;;;;12.71;100.00;95153.94;5075804;28;20048;-68
2022/05/15 00:20:46;;;;;;;9.98;6.35;;;;;;;12.62;100.00;95143.06;5077609;28;20047;-67
2022/05/15 00:23:14;;;;;;;9.30;5.70;;;;;;;12.67;100.00;95150.19;5076556;28;20055;-68
2022/05/15 00:25:42;;;;;;;8.00;6.20;;;;;;;12.58;100.00;95141.16;5070296;28;20601;-67
2022/05/15 00:28:09;;;;;;;8.50;6.03;;;;;;;12.61;100.00;95151.94;5075967;28;20040;-68
2022/05/15 00:30:37;;;;;;;8.13;5.10;;;;;;;12.58;100.00;95156.81;5074546;28;20525;-68
2022/05/15 00:33:05;;;;;;;8.65;6.03;;;;;;;12.54;100.00;95150.50;5088406;28;20113;-68
2022/05/15 00:35:33;;;;;;;7.88;5.70;;;;;;;12.50;100.00;95144.16;5078363;28;20043;-68
2022/05/15 00:38:00;;;;;;;7.35;5.85;;;;;;;12.51;100.00;95153.56;5075640;28;20052;-68
2022/05/15 00:40:27;;;;;;;8.25;5.68;;;;;;;12.49;100.00;95153.00;5051869;28;20051;-68
2022/05/15 00:42:54;;;;;;;8.02;5.03;;;;;;;12.40;100.00;95145.53;5073195;28;20060;-68
2022/05/15 00:45:23;;;;;;;8.45;5.90;;;;;;;12.42;100.00;95146.13;5069320;28;20049;-68
2022/05/15 00:47:50;;;;;;;7.55;4.93;;;;;;;12.45;100.00;95157.13;5073463;28;20048;-67
2022/05/15 00:50:27;;;;;;;8.60;5.10;;;;;;;12.43;100.00;95160.75;5074295;28;20131;-67
2022/05/15 00:52:58;;;;;;;6.78;5.05;;;;;;;12.41;100.00;95154.97;5072953;28;20059;-68
2022/05/15 00:55:32;;;;;;;7.72;5.35;;;;;;;12.38;100.00;95152.81;5068976;28;20044;-68
2022/05/15 00:58:13;;;;;;;19.70;11.18;;;;;;;12.31;100.00;95157.41;5069432;28;20047;-68
2022/05/15 01:00:41;;;;;;;9.20;5.95;;;;;;;12.28;100.00;95152.66;5074411;28;20035;-67
2022/05/15 01:03:15;;;;;;;9.93;6.53;;;;;;;12.25;100.00;95150.50;5071745;28;20036;-68
2022/05/15 01:05:49;;;;;;;6.82;5.65;;;;;;;12.23;100.00;95149.94;5068898;28;20174;-68
2022/05/15 01:08:23;;;;;;;8.68;5.85;;;;;;;12.15;100.00;95142.47;5071403;28;20036;-68
2022/05/15 01:10:54;;;;;;;6.90;4.93;;;;;;;12.15;100.00;95137.25;5071650;28;20101;-68
2022/05/15 01:13:31;;;;;;;10.07;6.18;;;;;;;12.21;100.00;95154.63;5072593;28;20780;-68
2022/05/15 01:15:58;;;;;;;6.90;4.95;;;;;;;12.21;100.00;95154.63;5073204;28;20050;-67
2022/05/15 01:18:32;;;;;;;6.93;4.90;;;;;;;12.16;100.00;95149.28;5073904;28;20120;-68
2022/05/15 01:21:01;;;;;;;7.78;4.90;;;;;;;12.11;100.00;95147.38;5071356;28;20123;-67
2022/05/15 01:23:29;;;;;;;7.30;5.53;;;;;;;12.03;100.00;95156.38;5074969;28;20076;-68
2022/05/15 01:25:58;;;;;;;7.43;5.22;;;;;;;11.96;100.00;95129.59;5068046;28;20048;-67
2022/05/15 01:28:27;;;;;;;6.15;4.70;;;;;;;11.94;100.00;95154.34;5067177;28;20094;-68
2022/05/15 01:30:57;;;;;;;7.25;4.82;;;;;;;11.94;100.00;95147.31;5067859;28;20043;-68
2022/05/15 01:33:25;;;;;;;8.10;5.35;;;;;;;11.88;100.00;95152.63;5074079;28;20039;-68
2022/05/15 01:35:52;;;;;;;9.10;5.78;;;;;;;11.92;100.00;95154.59;5067534;28;20074;-67
2022/05/15 01:38:20;;;;;;;8.48;6.10;;;;;;;11.95;100.00;95153.31;5069808;28;20044;-68
2022/05/15 01:40:49;;;;;;;11.43;7.20;;;;;;;11.96;100.00;95150.47;5075791;28;20532;-67
2022/05/15 01:43:17;;;;;;;8.55;6.35;;;;;;;11.92;100.00;95154.59;5067920;28;20061;-67
2022/05/15 01:45:44;;;;;;;13.25;8.00;;;;;;;11.83;100.00;95137.69;5072299;28;20119;-67
2022/05/15 01:48:12;;;;;;;12.00;8.27;;;;;;;11.85;100.00;95144.25;5066908;28;20051;-67
2022/05/15 01:50:41;;;;;;;13.63;8.00;;;;;;;11.69;100.00;95134.53;5072386;28;20036;-68
2022/05/15 01:53:12;;;;;;;10.27;7.63;;;;;;;11.27;100.00;95096.38;5058205;28;20082;-67
2022/05/15 01:55:39;;;;;;;9.70;6.43;;;;;;;11.48;100.00;95151.56;5070633;28;20044;-68
2022/05/15 01:58:09;;;;;;;9.15;6.55;;;;;;;11.40;100.00;95157.13;5067410;28;20037;-68
2022/05/15 02:00:38;;;;;;;9.00;6.00;;;;;;;11.33;100.00;95156.44;5072366;28;20530;-67
2022/05/15 02:03:05;;;;;;;9.35;6.30;;;;;;;11.24;100.00;95153.38;5075020;28;20048;-68
2022/05/15 02:05:32;;;;;;;14.25;8.10;;;;;;;11.24;100.00;95154.16;5068580;28;20070;-68
2022/05/15 02:07:59;;;;;;;17.75;7.82;;;;;;;11.24;100.00;95159.38;5072124;28;20392;-68
2022/05/15 02:10:26;;;;;;;15.90;8.90;;;;;;;11.23;100.00;95157.78;5072640;28;20036;-68
2022/05/15 02:12:53;;;;;;;14.60;8.32;;;;;;;11.20;100.00;95155.66;5074277;28;20055;-68
2022/05/15 02:15:22;;;;;;;12.05;7.43;;;;;;;11.11;100.00;95154.41;5074214;28;20048;-68
2022/05/15 02:17:49;;;;;;;10.68;7.88;;;;;;;11.13;100.00;95152.38;5070945;28;20644;-68
2022/05/15 02:20:16;;;;;;;10.70;7.30;;;;;;;11.20;100.00;95158.25;5071608;28;20052;-68
2022/05/15 02:22:44;;;;;;;12.73;7.88;;;;;;;11.07;100.00;95135.00;5074852;28;20318;-68
2022/05/15 02:25:13;;;;;;;12.50;8.48;;;;;;;11.19;100.00;95161.88;5073034;28;20048;-67
2022/05/15 02:27:43;;;;;;;10.63;7.20;;;;;;;11.18;100.00;95165.50;5068728;28;20037;-68
2022/05/15 02:30:11;;;;;;;13.30;7.30;;;;;;;11.12;100.00;95161.19;5074859;28;20045;-68
2022/05/15 02:32:38;;;;;;;15.18;8.18;;;;;;;11.20;100.00;95171.28;5075743;28;20040;-68
2022/05/15 02:35:06;;;;;;;12.05;8.02;;;;;;;11.23;100.00;95176.03;5069482;28;20132;-68
2022/05/15 02:37:33;;;;;;;11.40;8.27;;;;;;;11.15;100.00;95165.97;5068652;28;20041;-68
2022/05/15 02:40:01;;;;;;;13.38;8.30;;;;;;;11.15;100.00;95176.38;5073698;28;20127;-68
2022/05/15 02:42:28;;;;;;;14.60;9.18;;;;;;;11.16;100.00;95177.16;5054456;28;20049;-68
2022/05/15 02:44:55;;;;;;;15.98;9.25;;;;;;;11.12;100.00;95176.81;5077185;28;20694;-68
2022/05/15 02:47:22;;;;;;;12.05;8.32;;;;;;;11.05;100.00;95181.34;5068182;28;20036;-68
2022/05/15 02:52:34;;;;;;;14.20;8.75;;;;;;;10.96;100.00;95182.69;5066760;28;20058;-66
2022/05/15 02:55:02;;;;;;;13.98;8.98;;;;;;;10.85;100.00;95172.03;5076206;28;20286;-67
2022/05/15 02:57:29;;;;;;;13.85;8.82;;;;;;;10.90;100.00;95184.41;5076468;28;20036;-66
2022/05/15 02:59:56;;;;;;;12.73;8.57;;;;;;;10.85;100.00;95182.44;5079782;28;20513;-67
2022/05/15 03:02:23;;;;;;;14.02;8.80;;;;;;;10.73;100.00;95184.22;5073549;28;20036;-67
2022/05/15 03:04:51;;;;;;;12.07;8.38;;;;;;;10.65;100.00;95187.16;5073488;28;20048;-66
2022/05/15 03:07:18;;;;;;;17.90;10.52;;;;;;;10.61;100.00;95186.03;5075932;28;20041;-67
2022/05/15 03:09:47;;;;;;;11.48;7.95;;;;;;;10.58;100.00;95192.47;5073212;28;20048;-67
2022/05/15 03:12:14;;;;;;;14.82;8.85;;;;;;;10.52;100.00;95183.72;5070435;28;20315;-67
2022/05/15 03:14:41;;;;;;;14.05;9.25;;;;;;;10.51;100.00;95187.38;5070475;28;20054;-66
2022/05/15 03:17:08;;;;;;;13.52;9.13;;;;;;;10.47;100.00;95191.41;5076269;28;20097;-67
2022/05/15 03:19:35;;;;;;;18.95;10.45;;;;;;;10.50;100.00;95188.38;5079200;28;20055;-67
2022/05/15 03:22:02;;;;;;;13.73;9.30;;;;;;;10.44;100.00;95191.88;5078029;28;20043;-67
2022/05/15 03:24:29;;;;;;;19.33;10.70;;;;;;;10.36;100.00;95181.75;5072838;28;20095;-66
2022/05/15 03:26:58;;;;;;;19.55;11.00;;;;;;;10.38;100.00;95187.53;5074437;28;20040;-66
2022/05/15 03:29:25;;;;;;;16.35;10.27;;;;;;;10.38;100.00;95187.53;5070160;28;20055;-67
2022/05/15 03:31:52;;;;;;;16.15;9.55;;;;;;;10.34;100.00;95191.59;5060472;28;20462;-67
2022/05/15 03:34:20;;;;;;;19.65;10.95;;;;;;;10.33;100.00;95196.00;5071555;28;20036;-66
2022/05/15 03:36:51;;;;;;;16.75;10.90;;;;;;;10.37;100.00;95191.16;5072748;28;20044;-66
2022/05/15 03:39:20;;;;;;;18.67;11.90;;;;;;;10.41;100.00;95192.28;5066917;28;20067;-66
2022/05/15 03:41:49;;;;;;;19.23;11.82;;;;;;;10.53;100.00;95189.72;5074362;28;20040;-66
2022/05/15 03:44:16;;;;;;;20.38;11.68;;;;;;;10.51;100.00;95197.78;5072370;28;20040;-66
2022/05/15 03:46:43;;;;;;;18.73;11.25;;;;;;;10.54;100.00;95195.75;5072346;28;20098;-66
2022/05/15 03:49:13;;;;;;;16.88;11.27;;;;;;;10.51;100.00;95192.56;5076740;28;20135;-66
2022/05/15 03:51:41;;;;;;;20.98;11.43;;;;;;;10.60;100.00;95205.25;5068460;28;20048;-66
2022/05/15 03:54:10;;;;;;;19.45;10.90;;;;;;;10.63;100.00;95199.63;5073343;28;20837;-66
2022/05/15 03:56:50;;;;;;;16.90;12.05;;;;;;;10.79;100.00;95204.19;5071376;28;20048;-66
2022/05/15 03:59:27;;;;;;;17.52;10.88;;;;;;;10.83;100.00;95205.34;5076584;28;20089;-66
2022/05/15 04:01:54;;;;;;;17.10;10.73;;;;;;;10.83;100.00;95202.72;5076180;28;20041;-66
2022/05/15 04:04:25;;;;;;;17.63;11.10;;;;;;;10.90;100.00;95211.25;5075767;28;20543;-66
2022/05/15 04:06:52;;;;;;;20.30;11.40;;;;;;;10.88;100.00;95202.84;5076551;28;20123;-66
2022/05/15 04:09:19;;;;;;;20.73;11.02;;;;;;;10.98;100.00;95206.72;5080398;28;20044;-66
2022/05/15 04:11:46;;;;;;;17.88;10.07;;;;;;;11.10;100.00;95215.38;5075469;28;20050;-66
2022/05/15 04:14:13;;;;;;;16.20;9.77;;;;;;;11.23;100.00;95212.53;5076729;28;20075;-66
2022/05/15 04:16:40;;;;;;;13.38;9.23;;;;;;;11.31;100.00;95205.41;5079792;28;20746;-66
2022/05/15 04:19:08;;;;;;;15.93;9.55;;;;;;;11.44;100.00;95215.63;5078941;28;20526;-66
2022/05/15 04:21:37;;;;;;;12.13;9.43;;;;;;;11.40;100.00;95198.84;5070842;28;20052;-66
2022/05/15 04:24:10;;;;;;;14.02;9.25;;;;;;;11.67;100.00;95233.88;5068459;28;20044;-66
2022/05/15 04:26:38;;;;;;;19.20;9.32;;;;;;;11.74;100.00;95225.94;5073859;28;20040;-66
2022/05/15 04:29:06;;;;;;;14.18;8.38;;;;;;;11.84;100.00;95230.59;5071776;28;20139;-66
2022/05/15 04:31:36;;;;;;;14.32;9.02;;;;;;;11.94;100.00;95230.84;5077266;28;20043;-66
2022/05/15 04:34:04;;;;;;;12.70;8.43;;;;;;;12.04;100.00;95231.03;5073304;28;20047;-66
2022/05/15 04:36:33;;;;;;;10.77;7.80;;;;;;;12.10;100.00;95233.75;5078276;28;20624;-66
2022/05/15 04:39:01;;;;;;;11.82;7.68;;;;;;;12.14;100.00;95229.69;5072488;28;20040;-66
2022/05/15 04:41:29;;;;;;;12.15;8.30;;;;;;;12.20;100.00;95234.75;5074997;28;20450;-66
2022/05/15 04:43:57;;;;;;;10.20;7.53;;;;;;;12.26;100.00;95227.81;5069656;28;20074;-66
2022/05/15 04:46:26;;;;;;;12.30;8.50;;;;;;;12.29;100.00;95227.34;5076172;28;20110;-66
2022/05/15 04:48:53;;;;;;;14.38;8.50;;;;;;;12.46;100.00;95231.84;5077262;28;20052;-66
2022/05/15 04:51:19;;;;;;;10.73;7.60;;;;;;;12.56;100.00;95222.38;5077494;28;20063;-66
2022/05/15 04:53:46;;;;;;;11.02;7.55;;;;;;;12.61;100.00;95224.31;5076275;28;20514;-66
2022/05/15 04:56:13;;;;;;;12.68;8.15;;;;;;;12.69;100.00;95230.97;5073657;28;20547;-67
2022/05/15 04:58:40;;;;;;;9.90;7.72;;;;;;;12.81;100.00;95229.88;5066959;28;20044;-66
2022/05/15 05:01:07;;;;;;;11.75;7.90;;;;;;;12.93;100.00;95234.28;5072541;28;20036;-66
2022/05/15 05:03:35;;;;;;;12.25;8.18;;;;;;;13.01;100.00;95233.88;5075260;28;20489;-66
2022/05/15 05:06:02;;;;;;;10.85;7.63;;;;;;;13.13;100.00;95237.22;5077885;28;20036;-66
2022/05/15 05:08:29;;;;;;;11.15;8.07;;;;;;;13.20;100.00;95237.88;5072963;28;20052;-66
2022/05/15 05:10:56;;;;;;;11.65;8.45;;;;;;;13.25;100.00;95244.22;5075197;28;20036;-66
2022/05/15 05:13:23;;;;;;;11.68;7.32;;;;;;;13.31;100.00;95243.31;5069016;28;20051;-66
2022/05/15 05:15:50;;;;;;;10.07;7.40;;;;;;;13.42;100.00;95250.28;5075566;28;20062;-68
2022/05/15 05:18:18;;;;;;;10.55;7.47;;;;;;;13.55;100.00;95246.53;5073423;28;20048;-66
2022/05/15 05:20:45;;;;;;;11.40;7.40;;;;;;;13.65;100.00;95243.25;5068090;28;20047;-66
2022/05/15 05:23:12;;;;;;;11.02;7.78;;;;;;;13.68;100.00;95248.03;5070023;28;20044;-66
2022/05/15 05:25:40;;;;;;;9.13;6.72;;;;;;;13.75;100.00;95241.59;5072598;28;20036;-66
2022/05/15 05:28:07;;;;;;;13.40;8.15;;;;;;;13.76;100.00;95243.19;5072140;28;20043;-66
2022/05/15 05:30:34;;;;;;;10.35;7.50;;;;;;;13.95;100.00;95248.97;5076656;28;20767;-68
2022/05/15 05:33:01;;;;;;;10.25;7.78;;;;;;;14.15;100.00;95248.44;5070317;28;20051;-67
2022/05/15 05:35:27;;;;;;;10.38;6.95;;;;;;;14.24;100.00;95240.94;5076055;28;20047;-67
2022/05/15 05:37:54;;;;;;;10.20;7.03;;;;;;;14.29;100.00;95243.59;5053358;28;20051;-67
2022/05/15 05:40:22;;;;;;;9.07;6.88;;;;;;;14.41;100.00;95234.84;5071076;28;20047;-67
2022/05/15 05:42:49;;;;;;;11.27;7.25;;;;;;;14.51;100.00;95229.69;5075663;28;20051;-67
2022/05/15 05:45:17;;;;;;;10.52;7.13;;;;;;;14.64;100.00;95229.38;5072831;28;20051;-66
2022/05/15 05:47:46;;;;;;;10.52;6.95;;;;;;;14.61;100.00;95240.34;5073138;28;20045;-67
2022/05/15 05:50:14;;;;;;;6.60;5.70;;;;;;;14.76;100.00;95237.06;5074334;28;20733;-67
2022/05/15 05:52:42;;;;;;;7.72;6.13;;;;;;;14.88;100.00;95244.81;5072752;28;20046;-66
2022/05/15 05:55:12;;;;;;;8.73;5.05;;;;;;;15.05;100.00;95242.88;5075506;28;20045;-66
2022/05/15 05:57:40;;;;;;;10.75;5.68;;;;;;;15.19;100.00;95250.34;5074689;28;20051;-66
2022/05/15 06:00:11;;;;;;;6.82;5.75;;;;;;;15.35;100.00;95244.16;5072653;28;20044;-67
2022/05/15 06:02:38;;;;;;;8.10;5.88;;;;;;;15.46;100.00;95240.56;5071903;28;20036;-66
2022/05/15 06:05:06;;;;;;;9.13;6.07;;;;;;;15.56;100.00;95244.34;5072280;28;20070;-65
2022/05/15 06:07:34;;;;;;;7.53;5.60;;;;;;;15.57;100.00;95245.91;5073253;28;20051;-66
2022/05/15 06:10:01;;;;;;;8.13;6.18;;;;;;;15.64;100.00;95246.47;5072409;28;20044;-66
2022/05/15 06:12:28;;;;;;;9.13;5.82;;;;;;;15.82;100.00;95242.69;5077712;28;20040;-66
2022/05/15 06:14:55;;;;;;;15.45;5.40;;;;;;;15.96;100.00;95243.03;5072217;28;20055;-67
2022/05/15 06:17:24;;;;;;;7.18;5.10;;;;;;;16.03;96.07;95243.59;5074603;28;20759;-67
2022/05/15 06:19:51;;;;;;;11.98;6.03;;;;;;;15.96;98.39;95227.28;5067703;28;20861;-72
2022/05/15 06:22:18;;;;;;;7.45;5.95;;;;;;;16.27;99.50;95238.72;5074779;28;20040;-64
2022/05/15 06:24:45;;;;;;;8.02;5.95;;;;;;;16.40;98.13;95237.44;5074078;28;20047;-64
2022/05/15 06:27:13;;;;;;;8.10;5.82;;;;;;;16.55;97.19;95234.88;5079103;28;20089;-64
2022/05/15 06:29:41;;;;;;;6.63;5.13;;;;;;;16.81;93.50;95237.59;5073195;28;20079;-65
2022/05/15 06:32:09;;;;;;;7.28;4.97;;;;;;;16.89;91.97;95238.94;5077631;28;20028;-72
2022/05/15 06:34:36;;;;;;;6.72;4.95;;;;;;;16.97;92.64;95236.59;5076973;28;20048;-65
2022/05/15 06:37:03;;;;;;;8.63;5.22;;;;;;;17.08;90.42;95237.38;5074152;28;20036;-65
2022/05/15 06:39:31;;;;;;;6.15;4.63;;;;;;;17.10;89.44;95255.56;5080374;28;20055;-69
2022/05/15 06:42:00;;;;;;;9.18;5.00;;;;;;;17.07;90.02;95253.44;5069423;28;20617;-69
2022/05/15 06:44:38;;;;;;;9.38;5.45;;;;;;;17.08;90.94;95247.91;5071744;28;20045;-69
2022/05/15 06:47:05;;;;;;;10.32;6.30;;;;;;;17.06;91.44;95234.22;5071975;28;20048;-72
2022/05/15 06:49:32;;;;;;;10.35;5.03;;;;;;;17.34;92.19;95253.19;5072238;28;20047;-73
2022/05/15 06:51:59;;;;;;;6.75;5.20;;;;;;;17.44;90.88;95265.59;5072909;28;20056;-73
2022/05/15 06:54:28;;;;;;;7.47;5.18;;;;;;;17.52;90.13;95251.88;5075362;28;20742;-71
2022/05/15 06:59:40;;;;;;;9.90;5.25;;;;;;;17.95;88.23;95260.28;5082021;28;20166;-75
2022/05/15 07:02:07;;;;;;;9.30;6.13;;;;;;;18.19;89.70;95252.59;5070552;28;20044;-72
2022/05/15 07:04:35;;;;;;;6.88;5.25;;;;;;;18.46;86.69;95233.78;5056452;28;20051;-72
2022/05/15 07:07:02;;;;;;;7.55;5.78;;;;;;;18.48;86.72;95251.97;5079959;28;20702;-72
2022/05/15 07:09:30;;;;;;;5.40;4.65;;;;;;;18.50;86.92;95240.09;5073588;28;20048;-72
2022/05/15 07:11:57;;;;;;;8.65;4.95;;;;;;;18.58;87.34;95240.59;5077567;28;20044;-71
2022/05/15 07:14:25;;;;;;;13.15;5.38;;;;;;;18.65;86.04;95235.81;5073938;28;20048;-72
2022/05/15 07:16:52;;;;;;;5.78;4.60;;;;;;;18.75;86.46;95246.31;5074133;28;20063;-72
2022/05/15 07:19:18;;;;;;;12.02;5.35;;;;;;;18.72;85.52;95233.66;5077959;28;20044;-73
2022/05/15 07:21:45;;;;;;;6.13;4.90;;;;;;;18.88;84.29;95245.72;5079961;28;20044;-67
2022/05/15 07:24:12;;;;;;;8.10;5.28;;;;;;;18.83;84.93;95239.69;5074418;28;20571;-65
2022/05/15 07:26:44;;;;;;;7.57;5.22;;;;;;;18.71;86.19;95240.78;5081709;28;20062;-66
2022/05/15 07:29:13;;;;;;;10.55;5.05;;;;;;;18.70;86.19;95244.47;5075855;28;20223;-64
2022/05/15 07:31:40;;;;;;;8.75;5.20;;;;;;;18.76;86.26;95247.88;5079334;28;20032;-65
2022/05/15 07:34:07;;;;;;;6.20;5.05;;;;;;;18.94;85.70;95243.06;5076521;28;20075;-66
2022/05/15 07:36:36;;;;;;;6.72;5.13;;;;;;;19.13;85.46;95244.00;5074211;28;20044;-66
2022/05/15 07:39:03;;;;;;;6.93;5.07;;;;;;;19.22;84.60;95234.44;5073960;28;20094;-66
2022/05/15 07:41:30;;;;;;;7.25;5.65;;;;;;;19.36;84.90;95239.09;5074235;28;20086;-65
2022/05/15 07:43:57;;;;;;;8.55;4.57;;;;;;;19.66;81.87;95238.84;5081894;28;20048;-66
2022/05/15 07:46:24;;;;;;;8.50;4.55;;;;;;;19.85;81.01;95238.16;5075724;28;20546;-65
2022/05/15 07:48:51;;;;;;;11.43;4.50;;;;;;;20.09;78.82;95240.03;5078729;28;20071;-66
2022/05/15 07:51:17;;;;;;;5.38;4.38;;;;;;;20.27;77.44;95236.66;5075707;28;20036;-71
2022/05/15 07:53:44;;;;;;;6.25;4.32;;;;;;;20.51;77.07;95238.47;5084496;28;20040;-71
2022/05/15 07:56:13;;;;;;;9.68;3.88;;;;;;;20.36;75.74;95240.25;5070479;28;20045;-71
2022/05/15 07:58:40;;;;;;;7.55;3.90;;;;;;;20.40;74.51;95245.75;5077226;28;20145;-70
2022/05/15 08:01:10;;;;;;;4.32;3.35;;;;;;;20.53;74.19;95252.25;5076097;28;20045;-73
2022/05/15 08:03:42;;;;;;;6.15;3.42;;;;;;;20.80;72.53;95249.00;5075968;28;20111;-70
2022/05/15 08:09:03;;;;;;;4.95;3.15;;;;;;;21.13;68.45;95257.81;5073408;28;20450;-70
2022/05/15 08:11:31;;;;;;;14.40;3.63;;;;;;;21.25;65.26;95259.22;5073243;28;20104;-69
2022/05/15 08:14:02;;;;;;;4.53;2.95;;;;;;;21.17;64.93;95253.50;5075222;28;20044;-71
2022/05/15 08:16:30;;;;;;;5.20;3.17;;;;;;;21.11;65.79;95254.66;5073508;28;20746;-72
2022/05/15 08:24:28;;;;;;;5.45;2.83;;;;;;;21.23;61.37;95271.97;5064667;28;20048;-71
2022/05/15 08:26:56;;;;;;;5.40;3.22;;;;;;;21.19;61.00;95277.88;5071580;28;20522;-69
2022/05/15 08:29:23;;;;;;;3.97;2.85;;;;;;;21.39;60.20;95275.97;5054015;28;20051;-71
2022/05/15 08:31:50;;;;;;;4.32;2.47;;;;;;;21.38;60.36;95274.41;5069866;28;20438;-71
2022/05/15 08:34:17;;;;;;;3.10;2.60;;;;;;;21.41;60.24;95273.84;5075018;28;20603;-72
2022/05/15 08:36:44;;;;;;;4.53;3.08;;;;;;;21.47;59.28;95283.28;5077736;28;20506;-71
2022/05/15 08:39:13;;;;;;;9.38;2.42;;;;;;;21.23;59.51;95282.56;5075681;28;20044;-70
2022/05/15 08:42:01;;;;;;;4.68;2.92;;;;;;;21.12;61.07;95277.44;5058030;28;20133;-72
2022/05/15 08:44:33;;;;;;;3.35;2.30;;;;;;;21.42;59.41;95280.69;5072943;28;20403;-69
2022/05/15 08:47:21;;;;;;;5.28;2.75;;;;;;;21.65;60.01;95283.56;5064929;28;20038;-70
2022/05/15 08:49:57;;;;;;;8.40;2.80;;;;;;;21.71;57.51;95282.38;5076872;28;20557;-70
2022/05/15 08:52:52;;;;;;;2.92;2.20;;;;;;;21.52;55.22;95288.53;5074364;28;20035;-71
2022/05/15 08:55:45;;;;;;;4.15;2.15;;;;;;;21.33;56.53;95283.19;5073277;28;20055;-69
2022/05/15 08:58:49;;;;;;;6.93;2.53;;;;;;;21.43;57.15;95279.63;5071625;28;20743;-70
2022/05/15 09:01:24;;;;;;;3.65;2.28;;;;;;;21.23;55.16;95285.22;5068380;28;20438;-70
2022/05/15 09:03:52;;;;;;;3.25;2.53;;;;;;;21.23;56.12;95277.25;5071767;28;20040;-71
2022/05/15 09:06:45;;;;;;;5.13;3.50;;;;;;;21.20;54.46;95279.41;5071193;28;20670;-70
2022/05/15 09:09:38;;;;;;;3.80;2.35;;;;;;;21.63;53.92;95281.19;5073175;28;20510;-71
2022/05/15 09:12:24;;;;;;;3.22;2.15;;;;;;;21.53;50.76;95271.53;5075358;28;20052;-70
2022/05/15 09:15:18;;;;;;;2.10;1.88;;;;;;;21.81;47.16;95281.44;5075883;28;20047;-70
2022/05/15 09:18:03;;;;;;;6.88;1.83;;;;;;;22.14;49.25;95269.69;5072607;28;20530;-71
2022/05/15 09:20:42;;;;;;;2.47;1.83;;;;;;;22.35;46.91;95281.84;5077560;28;20701;-69
2022/05/15 09:23:34;;;;;;;3.50;1.95;;;;;;;22.46;46.19;95275.25;5074084;28;20040;-70
2022/05/15 09:26:28;;;;;;;2.42;1.75;;;;;;;22.68;45.67;95278.00;5072399;28;20044;-70
2022/05/15 09:29:05;;;;;;;2.63;1.83;;;;;;;22.85;44.09;95276.59;5076574;28;20048;-70
2022/05/15 09:31:35;;;;;;;3.13;2.10;;;;;;;22.94;43.53;95268.72;5070855;28;20539;-70
2022/05/15 09:34:12;;;;;;;3.20;1.50;;;;;;;22.77;41.72;95266.69;5074436;28;20153;-69
2022/05/15 09:36:44;;;;;;;2.78;1.70;;;;;;;22.78;41.38;95262.94;5063563;28;20041;-69
2022/05/15 09:39:20;;;;;;;2.22;1.60;;;;;;;22.79;42.72;95261.84;5070676;28;20055;-69
2022/05/15 09:44:47;;;;;;;3.38;2.00;;;;;;;23.45;42.84;95252.44;5063840;28;20151;-70
2022/05/15 09:47:21;;;;;;;3.38;1.88;;;;;;;23.66;41.09;95259.94;5067304;28;20511;-70
2022/05/15 09:49:48;;;;;;;6.85;2.08;;;;;;;23.89;41.81;95254.59;5066906;28;20048;-69
2022/05/15 09:52:20;;;;;;;5.00;1.85;;;;;;;23.43;42.59;95257.28;5067171;28;20035;-70
2022/05/15 09:54:49;;;;;;;3.97;2.38;;;;;;;23.54;40.83;95249.06;5070426;28;20109;-69
2022/05/15 09:57:24;;;;;;;4.85;2.03;;;;;;;23.40;41.76;95249.88;5070834;28;20511;-70
2022/05/15 10:00:00;;;;;;;3.92;1.50;;;;;;;23.74;41.27;95240.56;5068122;28;20044;-71
2022/05/15 10:02:42;;;;;;;3.40;2.58;;;;;;;24.23;40.97;95254.75;5070306;28;20730;-71
2022/05/15 10:05:17;;;;;;;4.22;1.75;;;;;;;24.47;39.83;95242.94;5069007;28;20052;-70
2022/05/15 10:08:00;;;;;;;4.22;2.00;;;;;;;24.45;42.14;95250.44;5069831;28;20044;-71
2022/05/15 10:10:58;;;;;;;3.08;1.60;;;;;;;24.78;39.19;95258.09;5072602;28;20140;-71
2022/05/15 10:14:00;;;;;;;3.88;1.98;;;;;;;25.06;40.39;95252.47;5041476;28;20106;-70
2022/05/15 10:16:31;;;;;;;2.67;1.98;;;;;;;24.73;38.63;95240.34;5063043;28;20067;-70
2022/05/15 10:19:08;;;;;;;2.92;1.90;;;;;;;25.14;39.81;95254.34;5071381;28;20137;-70
2022/05/15 10:21:45;;;;;;;2.88;2.17;;;;;;;25.22;39.25;95245.56;5070985;28;20070;-68
2022/05/15 10:24:28;;;;;;;4.07;2.95;;;;;;;24.93;39.14;95249.63;5070578;28;20043;-68
2022/05/15 10:27:04;;;;;;;2.45;2.08;;;;;;;25.10;37.71;95250.72;5080215;28;20070;-68
2022/05/15 10:30:07;;;;;;;7.28;2.22;;;;;;;25.37;37.64;95236.31;5070018;28;20044;-67
2022/05/15 10:32:38;;;;;;;5.18;2.05;;;;;;;25.59;36.87;95243.38;5077479;28;20044;-67
2022/05/15 10:35:09;;;;;;;3.30;1.55;;;;;;;25.19;36.07;95246.19;5076144;28;20049;-67
2022/05/15 10:38:19;;;;;;;2.60;1.80;;;;;;;25.61;36.86;95241.16;5080753;28;20067;-68
2022/05/15 10:40:53;;;;;;;2.10;1.63;;;;;;;25.90;36.06;95253.03;5051731;28;20052;-67
2022/05/15 10:43:54;;;;;;;2.63;1.88;;;;;;;25.58;36.99;95247.13;5074889;28;20044;-68
2022/05/15 10:46:39;;;;;;;2.85;1.70;;;;;;;25.45;37.50;95242.78;5075444;28;20043;-68
2022/05/15 10:49:34;;;;;;;4.55;2.13;;;;;;;25.26;36.24;95235.88;5077003;28;20043;-68
2022/05/15 10:52:40;;;;;;;2.00;1.73;;;;;;;25.67;36.46;95239.91;5074694;28;20404;-68
2022/05/15 10:58:37;;;;;;;1.60;1.45;;;;;;;25.66;37.10;95237.53;5073154;28;20051;-73
2022/05/15 11:01:18;;;;;;;2.72;1.77;;;;;;;25.97;34.96;95258.69;5073690;28;20043;-68
2022/05/15 11:04:11;;;;;;;2.65;1.92;;;;;;;26.13;34.60;95230.38;5074949;28;20043;-68
2022/05/15 11:06:54;;;;;;;2.95;1.75;;;;;;;26.08;34.33;95235.88;5074105;28;20047;-68
2022/05/15 11:09:56;;;;;;;5.30;1.73;;;;;;;26.28;34.38;95231.72;5081927;28;20044;-67
2022/05/15 11:13:24;;;;;;;5.03;1.77;;;;;;;26.24;35.20;95232.69;5072930;28;20043;-69
2022/05/15 11:16:15;;;;;;;2.65;1.95;;;;;;;26.31;33.61;95232.97;5043756;28;20757;-69
2022/05/15 11:19:03;;;;;;;3.63;2.20;;;;;;;26.93;34.25;95223.50;5078078;28;20052;-68
2022/05/15 11:21:53;;;;;;;6.63;2.05;;;;;;;26.76;34.86;95235.13;5077767;28;20122;-66
2022/05/15 11:24:32;;;;;;;3.28;1.85;;;;;;;26.87;33.78;95225.59;5074320;28;20028;-74
2022/05/15 11:27:11;;;;;;;4.13;1.90;;;;;;;27.40;33.55;95211.84;5077616;28;20550;-73
2022/05/15 11:29:43;;;;;;;7.35;2.05;;;;;;;28.11;33.76;95210.78;5073137;28;20119;-74
2022/05/15 11:32:33;;;;;;;5.07;2.35;;;;;;;28.15;32.07;95194.84;5074861;28;20124;-73
2022/05/15 11:35:17;;;;;;;5.47;1.92;;;;;;;28.13;32.94;95202.44;5072368;28;20041;-73
2022/05/15 11:37:56;;;;;;;1.65;1.35;;;;;;;28.04;32.75;95210.56;5074078;28;20047;-74
2022/05/15 11:40:34;;;;;;;3.33;2.00;;;;;;;27.53;33.22;95210.78;5072533;28;20040;-78
2022/05/15 11:43:29;;;;;;;2.88;1.77;;;;;;;27.24;32.54;95207.09;5080248;28;20144;-79
2022/05/15 11:46:18;;;;;;;2.58;1.70;;;;;;;27.58;33.52;95209.78;5073740;28;20051;-78
2022/05/15 11:48:52;;;;;;;4.95;2.17;;;;;;;27.23;32.52;95200.16;5073526;28;20653;-82
2022/05/15 11:51:24;;;;;;;;;;;;;;;27.59;33.01;95206.78;5068301;28;20044;-82
2022/05/15 11:54:07;;;;;;;2.63;1.80;;;;;;;27.94;33.24;95190.34;5070842;28;20011;-78
2022/05/15 11:56:54;;;;;;;3.47;2.38;;;;;;;28.01;32.89;95206.63;5070635;28;20032;-76
2022/05/15 11:59:24;;;;;;;5.57;1.98;;;;;;;27.83;32.57;95205.25;5073215;28;20044;-79
2022/05/15 12:02:02;;;;;;;3.22;1.85;;;;;;;28.09;32.98;95193.47;5075146;28;20064;-78
2022/05/15 12:04:36;;;;;;;2.95;2.08;;;;;;;27.91;32.51;95212.44;5078754;28;20081;-78
2022/05/15 12:07:03;;;;;;;2.57;1.70;;;;;;;27.53;32.21;95207.31;5073842;28;20597;-80